Time;durP1;ratioP1;P1;durP2;ratioP2;P2;SDS_P1;SDS_P2;PMS_P1;PMS_P2;Temp;Humidity;BMP_temperature;BMP_pressure;BME280_temperature;BME280_humidity;BME280_pressure;Samples;Min_cycle;Max_cycle;Signal;HPM_P1;HPM_P2
2023/01/19 00:01:39;;;;;;;4.85;1.60;;;;;;;;;;5078853;28;20509;-76
2023/01/19 00:04:05;;;;;;;5.15;1.98;;;;;;;;;;5072887;28;20875;-76
2023/01/19 00:06:31;;;;;;;5.55;1.60;;;;;;;;;;5067662;28;20426;-75
2023/01/19 00:08:57;;;;;;;6.88;1.75;;;;;;;;;;5086943;28;20758;-76
2023/01/19 00:11:23;;;;;;;5.40;1.70;;;;;;;;;;5073937;28;20501;-76
2023/01/19 00:13:49;;;;;;;6.35;1.60;;;;;;;;;;5090921;28;20414;-76
2023/01/19 00:16:21;;;;;;;6.68;1.90;;;;;;;;;;5088824;28;20767;-76
2023/01/19 00:18:49;;;;;;;5.85;1.80;;;;;;;;;;5091972;28;20414;-76
2023/01/19 00:21:15;;;;;;;7.30;2.22;;;;;;;;;;5088083;28;20888;-75
2023/01/19 00:23:42;;;;;;;6.70;2.10;;;;;;;;;;5091348;28;20921;-76
2023/01/19 00:26:09;;;;;;;7.38;2.25;;;;;;;;;;5086580;28;20449;-76
2023/01/19 00:28:35;;;;;;;6.90;2.20;;;;;;;;;;5075219;28;20465;-76
2023/01/19 00:31:01;;;;;;;12.77;2.88;;;;;;;;;;5091639;28;20794;-76
2023/01/19 00:33:28;;;;;;;14.75;3.28;;;;;;;;;;5108622;27;20419;-76
2023/01/19 00:35:54;;;;;;;77.65;7.53;;;;;;;;;;5074361;28;20418;-76
2023/01/19 00:38:20;;;;;;;9.90;2.40;;;;;;;;;;5055978;28;20739;-76
2023/01/19 00:40:46;;;;;;;5.40;1.70;;;;;;;;;;5056353;28;20408;-77
2023/01/19 00:43:12;;;;;;;5.97;1.73;;;;;;;;;;5071995;28;20399;-76
2023/01/19 00:45:39;;;;;;;9.90;1.77;;;;;;;;;;5091027;28;20428;-77
2023/01/19 00:48:05;;;;;;;7.53;2.38;;;;;;;;;;5089135;28;20914;-77
2023/01/19 00:50:31;;;;;;;10.85;2.30;;;;;;;;;;5091200;28;20471;-76
2023/01/19 00:53:01;;;;;;;7.22;1.30;;;;;;;;;;5092225;28;20398;-76
2023/01/19 00:55:28;;;;;;;5.50;1.30;;;;;;;;;;5075986;28;20421;-76
2023/01/19 00:57:54;;;;;;;7.50;1.38;;;;;;;;;;5084819;28;20469;-76
2023/01/19 01:00:21;;;;;;;13.18;2.85;;;;;;;;;;5091915;28;20430;-76
2023/01/19 01:02:48;;;;;;;10.45;1.75;;;;;;;;;;5091505;28;20913;-76
2023/01/19 01:05:14;;;;;;;5.70;1.27;;;;;;;;;;5078160;28;20452;-76
2023/01/19 01:07:40;;;;;;;7.13;1.23;;;;;;;;;;5089653;28;20416;-76
2023/01/19 01:10:11;;;;;;;6.65;1.40;;;;;;;;;;5081794;28;20437;-80
2023/01/19 01:12:37;;;;;;;8.35;2.38;;;;;;;;;;5067645;28;20450;-80
2023/01/19 01:15:07;;;;;;;6.55;1.48;;;;;;;;;;5073447;28;21045;-80
2023/01/19 01:17:33;;;;;;;7.25;1.60;;;;;;;;;;5091435;28;20921;-80
2023/01/19 01:19:59;;;;;;;6.22;1.67;;;;;;;;;;5091366;28;20401;-76
2023/01/19 01:22:25;;;;;;;9.27;1.80;;;;;;;;;;5073779;28;20501;-76
2023/01/19 01:24:51;;;;;;;23.27;3.88;;;;;;;;;;5084668;28;20492;-76
2023/01/19 01:27:18;;;;;;;6.40;3.00;;;;;;;;;;5079658;28;20834;-76
2023/01/19 01:29:46;;;;;;;9.00;3.95;;;;;;;;;;5087877;28;20460;-76
2023/01/19 01:32:13;;;;;;;10.80;4.80;;;;;;;;;;5087401;28;20410;-76
2023/01/19 01:34:39;;;;;;;9.05;4.70;;;;;;;;;;5115024;27;20425;-76
2023/01/19 01:37:07;;;;;;;49.33;8.55;;;;;;;;;;5087287;28;20417;-76
2023/01/19 01:39:33;;;;;;;12.60;5.70;;;;;;;;;;5079365;28;20429;-75
2023/01/19 01:41:59;;;;;;;10.90;5.93;;;;;;;;;;5075283;28;20494;-76
2023/01/19 01:44:48;;;;;;;11.40;6.00;;;;;;;;;;5097387;28;20479;-75
2023/01/19 01:47:25;;;;;;;10.15;6.25;;;;;;;;;;5072672;28;20422;-75
2023/01/19 01:49:54;;;;;;;10.48;6.30;;;;;;;;;;5078799;28;20511;-75
2023/01/19 01:52:22;;;;;;;73.72;12.43;;;;;;;;;;5085598;28;20902;-75
2023/01/19 01:54:48;;;;;;;10.68;6.40;;;;;;;;;;5073427;28;20495;-76
2023/01/19 01:57:14;;;;;;;8.48;5.97;;;;;;;;;;5088615;28;20426;-76
2023/01/19 01:59:43;;;;;;;11.43;6.05;;;;;;;;;;5072614;28;20521;-76
2023/01/19 02:05:08;;;;;;;10.70;6.15;;;;;;;;;;5084924;28;20418;-76
2023/01/19 02:13:17;;;;;;;54.40;8.07;;;;;;;;;;5070298;28;20421;-76
2023/01/19 02:15:43;;;;;;;12.50;6.18;;;;;;;;;;5065497;28;20953;-77
2023/01/19 02:18:09;;;;;;;15.40;6.13;;;;;;;;;;5088994;28;20418;-82
2023/01/19 02:20:36;;;;;;;11.02;5.47;;;;;;;;;;5073742;28;20410;-82
2023/01/19 02:23:04;;;;;;;11.45;5.60;;;;;;;;;;5085843;28;20422;-77
2023/01/19 02:25:31;;;;;;;9.68;5.88;;;;;;;;;;5088153;28;20417;-77
2023/01/19 02:27:57;;;;;;;10.07;5.45;;;;;;;;;;5085247;28;20447;-76
2023/01/19 02:30:24;;;;;;;12.35;5.75;;;;;;;;;;5076769;28;20802;-76
2023/01/19 02:32:51;;;;;;;10.82;5.97;;;;;;;;;;5064391;28;20429;-76
2023/01/19 02:35:17;;;;;;;10.60;5.50;;;;;;;;;;5071296;28;20779;-76
2023/01/19 02:37:43;;;;;;;10.63;5.22;;;;;;;;;;5073098;28;20413;-76
2023/01/19 02:40:11;;;;;;;10.57;6.00;;;;;;;;;;5086511;28;20493;-76
2023/01/19 02:42:40;;;;;;;13.18;5.80;;;;;;;;;;5082650;28;20426;-76
2023/01/19 02:45:08;;;;;;;11.85;5.88;;;;;;;;;;5077598;28;20572;-76
2023/01/19 02:47:38;;;;;;;10.77;5.65;;;;;;;;;;5072970;28;20457;-76
2023/01/19 02:50:05;;;;;;;14.25;6.03;;;;;;;;;;5088381;28;20437;-76
2023/01/19 02:52:31;;;;;;;16.23;6.18;;;;;;;;;;5071770;28;20417;-76
2023/01/19 02:55:03;;;;;;;9.53;5.47;;;;;;;;;;5074636;28;20421;-76
2023/01/19 02:57:30;;;;;;;9.65;5.25;;;;;;;;;;5089901;28;20929;-76
2023/01/19 03:00:02;;;;;;;12.13;5.70;;;;;;;;;;5082905;28;20424;-75
2023/01/19 03:02:38;;;;;;;10.90;5.43;;;;;;;;;;5079814;28;20769;-75
2023/01/19 03:05:26;;;;;;;11.60;5.57;;;;;;;;;;5077990;28;20499;-77
2023/01/19 03:08:07;;;;;;;10.27;5.13;;;;;;;;;;5062806;28;20416;-77
2023/01/19 03:10:41;;;;;;;11.65;5.72;;;;;;;;;;5073685;28;20422;-76
2023/01/19 03:13:10;;;;;;;12.30;5.55;;;;;;;;;;5084824;28;20423;-79
2023/01/19 03:15:36;;;;;;;11.43;4.85;;;;;;;;;;5070956;28;20411;-80
2023/01/19 03:18:03;;;;;;;10.82;4.55;;;;;;;;;;5073349;28;20414;-80
2023/01/19 03:20:29;;;;;;;9.20;5.05;;;;;;;;;;5062185;28;20418;-80
2023/01/19 03:23:00;;;;;;;9.30;4.55;;;;;;;;;;5090532;28;20483;-80
2023/01/19 03:25:27;;;;;;;12.40;4.90;;;;;;;;;;5078573;28;20501;-80
2023/01/19 03:27:54;;;;;;;17.35;5.18;;;;;;;;;;5093612;28;20414;-80
2023/01/19 03:30:24;;;;;;;10.40;4.68;;;;;;;;;;5092626;28;20762;-80
2023/01/19 03:32:56;;;;;;;9.60;4.25;;;;;;;;;;5086018;28;20510;-80
2023/01/19 03:35:23;;;;;;;8.60;3.60;;;;;;;;;;5074236;28;20846;-81
2023/01/19 03:37:51;;;;;;;9.80;3.65;;;;;;;;;;5089933;28;20824;-81
2023/01/19 03:40:17;;;;;;;10.45;3.40;;;;;;;;;;5091008;28;20424;-81
2023/01/19 03:42:44;;;;;;;8.15;2.95;;;;;;;;;;5076532;28;20963;-80
2023/01/19 03:45:11;;;;;;;16.63;4.95;;;;;;;;;;5117258;27;20419;-81
2023/01/19 03:47:37;;;;;;;6.97;2.70;;;;;;;;;;5090424;28;20411;-81
2023/01/19 03:50:07;;;;;;;8.17;2.90;;;;;;;;;;5088647;28;20417;-80
2023/01/19 03:52:33;;;;;;;7.05;2.80;;;;;;;;;;5091736;28;20422;-81
2023/01/19 03:55:03;;;;;;;7.50;2.38;;;;;;;;;;5093326;28;20777;-81
2023/01/19 03:57:29;;;;;;;8.07;2.58;;;;;;;;;;5091317;28;20948;-81
2023/01/19 03:59:56;;;;;;;9.35;2.35;;;;;;;;;;5093422;28;20874;-81
2023/01/19 04:02:22;;;;;;;6.33;2.50;;;;;;;;;;5092397;28;20451;-81
2023/01/19 04:04:48;;;;;;;6.07;1.90;;;;;;;;;;5077352;28;20921;-80
2023/01/19 04:07:14;;;;;;;6.00;1.90;;;;;;;;;;5092934;28;20422;-81
2023/01/19 04:09:41;;;;;;;4.63;1.60;;;;;;;;;;5093074;28;20394;-80
2023/01/19 04:12:07;;;;;;;7.32;2.13;;;;;;;;;;5109165;28;20414;-81
2023/01/19 04:14:33;;;;;;;7.82;1.73;;;;;;;;;;5092372;28;20418;-80
2023/01/19 04:16:59;;;;;;;8.60;1.60;;;;;;;;;;5107382;28;20418;-81
2023/01/19 04:19:25;;;;;;;6.03;1.80;;;;;;;;;;5075315;28;20414;-81
2023/01/19 04:21:51;;;;;;;6.93;1.63;;;;;;;;;;5087539;28;20435;-80
2023/01/19 04:24:18;;;;;;;5.85;1.48;;;;;;;;;;5075835;28;20479;-79
2023/01/19 04:26:44;;;;;;;6.50;1.50;;;;;;;;;;5091178;28;20416;-81
2023/01/19 04:29:10;;;;;;;9.27;1.50;;;;;;;;;;5090356;28;20410;-81
2023/01/19 04:31:36;;;;;;;7.63;1.80;;;;;;;;;;5092501;28;20816;-81
2023/01/19 04:34:03;;;;;;;7.88;1.60;;;;;;;;;;5071535;28;20915;-82
2023/01/19 04:36:30;;;;;;;8.68;1.70;;;;;;;;;;5091078;28;20421;-81
2023/01/19 04:38:56;;;;;;;8.03;1.70;;;;;;;;;;5091519;28;21003;-82
2023/01/19 04:41:22;;;;;;;8.05;1.55;;;;;;;;;;5080319;28;20419;-81
2023/01/19 04:43:48;;;;;;;7.72;1.42;;;;;;;;;;5109656;28;20421;-79
2023/01/19 04:46:14;;;;;;;7.45;1.60;;;;;;;;;;5074268;28;20414;-80
2023/01/19 04:48:40;;;;;;;7.68;1.50;;;;;;;;;;5072346;28;21076;-80
2023/01/19 04:51:07;;;;;;;10.82;1.90;;;;;;;;;;5073051;28;20415;-80
2023/01/19 04:53:33;;;;;;;7.93;1.73;;;;;;;;;;5075127;28;20403;-80
2023/01/19 04:55:59;;;;;;;11.98;2.17;;;;;;;;;;5072970;28;20417;-80
2023/01/19 04:58:26;;;;;;;9.80;1.55;;;;;;;;;;5074381;28;20909;-80
2023/01/19 05:00:52;;;;;;;11.82;1.90;;;;;;;;;;5072084;28;20403;-80
2023/01/19 05:03:18;;;;;;;8.43;1.40;;;;;;;;;;5082135;28;20414;-80
2023/01/19 05:05:45;;;;;;;8.98;1.45;;;;;;;;;;5090700;28;20452;-80
2023/01/19 05:08:11;;;;;;;7.28;1.55;;;;;;;;;;5091201;28;20433;-80
2023/01/19 05:10:37;;;;;;;10.73;2.92;;;;;;;;;;5091711;28;20467;-80
2023/01/19 05:13:04;;;;;;;10.93;1.60;;;;;;;;;;5106394;28;20424;-80
2023/01/19 05:15:30;;;;;;;11.05;1.83;;;;;;;;;;5071256;28;20488;-80
2023/01/19 05:17:59;;;;;;;9.13;1.60;;;;;;;;;;5082912;28;20418;-81
2023/01/19 05:20:25;;;;;;;8.23;1.42;;;;;;;;;;5073567;28;20424;-79
2023/01/19 05:22:52;;;;;;;8.13;1.67;;;;;;;;;;5084416;28;20422;-80
2023/01/19 05:25:18;;;;;;;8.35;1.52;;;;;;;;;;5071185;28;20408;-80
2023/01/19 05:27:44;;;;;;;7.65;1.30;;;;;;;;;;5071293;28;20507;-80
2023/01/19 05:30:12;;;;;;;7.70;1.38;;;;;;;;;;5081979;28;20422;-80
2023/01/19 05:32:38;;;;;;;9.02;1.30;;;;;;;;;;5091107;28;20421;-80
2023/01/19 05:35:04;;;;;;;6.03;1.50;;;;;;;;;;5074407;28;20507;-81
2023/01/19 05:37:31;;;;;;;6.25;1.60;;;;;;;;;;5091157;28;20427;-81
2023/01/19 05:39:57;;;;;;;9.32;1.63;;;;;;;;;;5085004;28;20406;-82
2023/01/19 05:42:23;;;;;;;12.50;2.28;;;;;;;;;;5107580;28;20751;-81
2023/01/19 05:44:49;;;;;;;5.47;1.70;;;;;;;;;;5091001;28;20453;-82
2023/01/19 05:47:16;;;;;;;7.18;1.50;;;;;;;;;;5091664;28;20735;-81
2023/01/19 05:49:42;;;;;;;8.88;1.60;;;;;;;;;;5074366;28;20427;-81
2023/01/19 05:52:08;;;;;;;8.00;2.00;;;;;;;;;;5089176;28;20453;-81
2023/01/19 05:54:34;;;;;;;7.60;1.65;;;;;;;;;;5091236;28;20894;-82
2023/01/19 05:57:01;;;;;;;10.18;1.83;;;;;;;;;;5085561;28;20422;-80
2023/01/19 05:59:28;;;;;;;8.50;1.60;;;;;;;;;;5072607;28;20447;-80
2023/01/19 06:01:58;;;;;;;7.25;1.80;;;;;;;;;;5085786;28;20422;-81
2023/01/19 06:04:25;;;;;;;7.25;1.60;;;;;;;;;;5122768;27;20438;-81
2023/01/19 06:06:51;;;;;;;8.25;1.80;;;;;;;;;;5085984;28;20416;-81
2023/01/19 06:09:17;;;;;;;11.18;1.90;;;;;;;;;;5073496;28;20441;-80
2023/01/19 06:11:44;;;;;;;9.48;2.10;;;;;;;;;;5090607;28;20406;-81
2023/01/19 06:14:10;;;;;;;9.70;1.65;;;;;;;;;;5082102;28;20419;-81
2023/01/19 06:16:36;;;;;;;9.10;1.73;;;;;;;;;;5089100;28;20901;-76
2023/01/19 06:19:03;;;;;;;8.80;1.90;;;;;;;;;;5072191;28;20493;-81
2023/01/19 06:21:29;;;;;;;11.70;2.50;;;;;;;;;;5071028;28;20476;-80
2023/01/19 06:23:55;;;;;;;8.75;1.80;;;;;;;;;;5089438;28;20421;-81
2023/01/19 06:26:21;;;;;;;9.35;1.98;;;;;;;;;;5079825;28;20452;-81
2023/01/19 06:28:55;;;;;;;10.27;1.80;;;;;;;;;;5086614;28;20980;-80
2023/01/19 06:31:21;;;;;;;7.25;2.05;;;;;;;;;;5085164;28;20460;-81
2023/01/19 06:33:47;;;;;;;9.80;2.30;;;;;;;;;;5082219;28;20918;-84
2023/01/19 06:36:13;;;;;;;11.52;1.98;;;;;;;;;;5082338;28;20778;-82
2023/01/19 06:38:39;;;;;;;8.93;2.00;;;;;;;;;;5101949;28;20959;-82
2023/01/19 06:41:05;;;;;;;12.75;2.22;;;;;;;;;;5069049;28;20425;-82
2023/01/19 06:43:31;;;;;;;13.43;2.00;;;;;;;;;;5079361;28;20502;-84
2023/01/19 06:45:59;;;;;;;11.68;2.15;;;;;;;;;;5085859;28;20517;-83
2023/01/19 06:48:25;;;;;;;8.20;1.80;;;;;;;;;;5066489;28;20418;-84
2023/01/19 06:50:51;;;;;;;13.57;1.88;;;;;;;;;;5089890;28;20414;-84
2023/01/19 06:53:19;;;;;;;11.15;1.83;;;;;;;;;;5089069;28;20427;-84
2023/01/19 06:55:46;;;;;;;11.80;1.83;;;;;;;;;;5090480;28;20496;-82
2023/01/19 06:58:12;;;;;;;11.10;2.10;;;;;;;;;;5080587;28;20413;-85
2023/01/19 07:00:38;;;;;;;11.95;2.00;;;;;;;;;;5086754;28;20418;-84
2023/01/19 07:03:08;;;;;;;8.93;1.80;;;;;;;;;;5118926;27;20921;-85
2023/01/19 07:05:34;;;;;;;8.35;2.03;;;;;;;;;;5087449;28;20524;-84
2023/01/19 07:08:00;;;;;;;15.93;1.95;;;;;;;;;;5082336;28;20415;-82
2023/01/19 07:10:27;;;;;;;13.23;2.20;;;;;;;;;;5085395;28;20432;-82
2023/01/19 07:12:53;;;;;;;16.15;2.45;;;;;;;;;;5048918;28;20423;-82
2023/01/19 07:15:20;;;;;;;13.98;2.78;;;;;;;;;;5085657;28;20422;-82
2023/01/19 07:17:46;;;;;;;12.65;2.30;;;;;;;;;;5074732;28;20429;-83
2023/01/19 07:20:13;;;;;;;14.30;2.65;;;;;;;;;;5070219;28;20418;-82
2023/01/19 07:22:44;;;;;;;16.65;3.00;;;;;;;;;;5082936;28;20497;-82
2023/01/19 07:25:10;;;;;;;13.27;2.17;;;;;;;;;;5084019;28;20471;-82
2023/01/19 07:27:36;;;;;;;11.02;2.30;;;;;;;;;;5107970;28;20767;-83
2023/01/19 07:30:03;;;;;;;9.70;1.70;;;;;;;;;;5097044;28;20457;-84
2023/01/19 07:32:29;;;;;;;10.23;2.33;;;;;;;;;;5103104;28;20422;-83
2023/01/19 07:34:55;;;;;;;15.47;2.90;;;;;;;;;;5071506;28;20512;-82
2023/01/19 07:37:21;;;;;;;10.57;2.40;;;;;;;;;;5074151;28;20424;-84
2023/01/19 07:39:47;;;;;;;15.63;3.17;;;;;;;;;;5078537;28;20419;-83
2023/01/19 07:42:13;;;;;;;11.75;2.20;;;;;;;;;;5090519;28;20425;-83
2023/01/19 07:44:40;;;;;;;17.00;3.00;;;;;;;;;;5080947;28;20422;-83
2023/01/19 07:47:07;;;;;;;18.65;2.40;;;;;;;;;;5046514;28;20419;-85
2023/01/19 07:49:35;;;;;;;12.55;2.20;;;;;;;;;;5088460;28;20499;-84
2023/01/19 07:52:01;;;;;;;17.08;2.67;;;;;;;;;;5078768;28;20947;-83
2023/01/19 07:54:27;;;;;;;12.98;2.40;;;;;;;;;;5087655;28;20488;-84
2023/01/19 07:56:54;;;;;;;16.60;2.63;;;;;;;;;;5072943;28;20421;-84
2023/01/19 07:59:20;;;;;;;18.27;3.03;;;;;;;;;;5076487;28;20417;-83
2023/01/19 08:01:46;;;;;;;13.32;2.55;;;;;;;;;;5091727;28;20428;-84
2023/01/19 08:04:12;;;;;;;13.13;2.50;;;;;;;;;;5076269;28;20397;-84
2023/01/19 08:06:39;;;;;;;18.35;2.97;;;;;;;;;;5074670;28;20425;-83
2023/01/19 08:09:06;;;;;;;20.53;2.83;;;;;;;;;;5092294;28;20409;-83
2023/01/19 08:11:32;;;;;;;18.45;2.65;;;;;;;;;;5087930;28;20407;-82
2023/01/19 08:13:59;;;;;;;17.50;2.60;;;;;;;;;;5066918;28;20424;-82
2023/01/19 08:16:26;;;;;;;12.88;2.60;;;;;;;;;;5106894;28;22340;-84
2023/01/19 08:18:52;;;;;;;14.13;2.53;;;;;;;;;;5083179;28;20416;-83
2023/01/19 08:21:18;;;;;;;17.40;3.03;;;;;;;;;;5066891;28;20497;-84
2023/01/19 08:23:51;;;;;;;17.52;3.13;;;;;;;;;;5085680;28;20487;-83
2023/01/19 08:26:26;;;;;;;19.48;3.00;;;;;;;;;;5072799;28;20409;-84
2023/01/19 08:28:52;;;;;;;16.17;3.08;;;;;;;;;;5073528;28;20493;-83
2023/01/19 08:31:18;;;;;;;17.05;3.03;;;;;;;;;;5074909;28;20414;-85
2023/01/19 08:33:44;;;;;;;18.55;3.03;;;;;;;;;;5121253;27;20425;-84
2023/01/19 08:36:10;;;;;;;13.38;2.78;;;;;;;;;;5065647;28;20431;-86
2023/01/19 08:38:39;;;;;;;22.27;2.83;;;;;;;;;;5092322;28;20823;-86
2023/01/19 08:41:05;;;;;;;22.38;3.40;;;;;;;;;;5078255;28;20418;-86
2023/01/19 08:43:31;;;;;;;17.23;2.80;;;;;;;;;;5108786;28;20452;-85
2023/01/19 08:45:57;;;;;;;20.40;3.13;;;;;;;;;;5089531;28;20422;-83
2023/01/19 08:48:24;;;;;;;15.82;3.10;;;;;;;;;;5098271;28;20454;-84
2023/01/19 08:50:51;;;;;;;16.15;3.28;;;;;;;;;;5120037;27;20506;-85
2023/01/19 08:53:19;;;;;;;20.50;3.20;;;;;;;;;;5091710;28;20417;-85
2023/01/19 08:55:45;;;;;;;17.17;3.42;;;;;;;;;;5109185;28;20470;-85
2023/01/19 08:58:11;;;;;;;20.02;3.25;;;;;;;;;;5087130;28;20403;-85
2023/01/19 09:00:37;;;;;;;22.00;3.75;;;;;;;;;;5089629;28;20751;-85
2023/01/19 09:03:05;;;;;;;24.05;3.42;;;;;;;;;;5074369;28;20426;-85
2023/01/19 09:05:34;;;;;;;19.92;3.28;;;;;;;;;;5089202;28;20429;-84
2023/01/19 09:08:01;;;;;;;20.23;3.47;;;;;;;;;;5092703;28;20450;-85
2023/01/19 09:10:30;;;;;;;22.40;3.50;;;;;;;;;;5073857;28;20409;-84
2023/01/19 09:12:57;;;;;;;16.48;2.90;;;;;;;;;;5117346;27;20607;-84
2023/01/19 09:15:23;;;;;;;19.23;3.30;;;;;;;;;;5093039;28;20462;-84
2023/01/19 09:17:51;;;;;;;24.42;4.45;;;;;;;;;;5074513;28;20417;-85
2023/01/19 09:20:17;;;;;;;18.75;3.22;;;;;;;;;;5079774;28;20421;-85
2023/01/19 09:22:44;;;;;;;19.25;3.30;;;;;;;;;;5104383;28;20422;-85
2023/01/19 09:25:10;;;;;;;24.00;4.25;;;;;;;;;;5103583;27;20414;-86
2023/01/19 09:27:36;;;;;;;21.15;3.78;;;;;;;;;;5055124;28;20415;-85
2023/01/19 09:30:03;;;;;;;17.95;3.60;;;;;;;;;;5091942;28;20402;-85
2023/01/19 09:32:29;;;;;;;20.65;3.55;;;;;;;;;;5091872;28;20406;-85
2023/01/19 09:34:55;;;;;;;20.10;4.03;;;;;;;;;;5083075;28;20423;-84
2023/01/19 09:37:21;;;;;;;20.25;3.17;;;;;;;;;;5085061;28;20430;-83
2023/01/19 09:39:47;;;;;;;21.25;3.78;;;;;;;;;;5084733;28;20424;-84
2023/01/19 09:42:21;;;;;;;19.58;3.00;;;;;;;;;;5075496;28;20426;-83
2023/01/19 09:44:48;;;;;;;23.33;3.43;;;;;;;;;;5089149;28;20449;-83
2023/01/19 09:47:15;;;;;;;16.98;2.90;;;;;;;;;;5085387;28;20425;-83
2023/01/19 09:49:45;;;;;;;14.85;3.17;;;;;;;;;;5090506;28;20409;-84
2023/01/19 09:52:14;;;;;;;16.42;2.88;;;;;;;;;;5089544;28;20482;-84
2023/01/19 09:54:51;;;;;;;17.92;3.15;;;;;;;;;;5072203;28;20439;-85
2023/01/19 09:57:17;;;;;;;18.40;3.03;;;;;;;;;;5090680;28;20442;-85
2023/01/19 09:59:46;;;;;;;15.15;2.90;;;;;;;;;;5089290;28;20417;-84
2023/01/19 10:02:22;;;;;;;17.95;3.47;;;;;;;;;;5086728;28;20428;-85
2023/01/19 10:04:48;;;;;;;16.02;2.67;;;;;;;;;;5113833;27;20418;-85
2023/01/19 10:07:33;;;;;;;11.38;2.45;;;;;;;;;;5076046;28;20921;-84
2023/01/19 10:09:59;;;;;;;14.13;3.05;;;;;;;;;;5082798;28;20500;-85
2023/01/19 10:12:25;;;;;;;14.57;2.50;;;;;;;;;;5087933;28;20808;-85
2023/01/19 10:15:00;;;;;;;13.48;2.25;;;;;;;;;;5073832;28;20413;-85
2023/01/19 10:17:49;;;;;;;16.50;2.65;;;;;;;;;;5085923;28;20497;-84
2023/01/19 10:20:35;;;;;;;15.10;2.80;;;;;;;;;;5096605;28;20459;-84
2023/01/19 10:23:04;;;;;;;13.85;3.08;;;;;;;;;;5049366;28;20513;-86
2023/01/19 10:25:30;;;;;;;14.10;3.00;;;;;;;;;;5084583;28;20406;-84
2023/01/19 10:27:58;;;;;;;12.02;2.47;;;;;;;;;;5094988;28;20925;-85
2023/01/19 10:30:27;;;;;;;12.10;2.13;;;;;;;;;;5083979;28;20419;-84
2023/01/19 10:32:53;;;;;;;11.70;2.42;;;;;;;;;;5072481;28;20500;-84
2023/01/19 10:35:23;;;;;;;13.30;2.30;;;;;;;;;;5092975;28;20424;-84
2023/01/19 10:37:50;;;;;;;12.57;2.17;;;;;;;;;;5092050;28;20442;-84
2023/01/19 10:40:26;;;;;;;17.48;2.30;;;;;;;;;;5090342;28;20441;-84
2023/01/19 10:42:52;;;;;;;10.50;2.08;;;;;;;;;;5115564;27;20505;-85
2023/01/19 10:45:23;;;;;;;11.80;2.00;;;;;;;;;;5058469;28;20422;-86
2023/01/19 10:47:49;;;;;;;11.30;2.00;;;;;;;;;;5091512;28;20514;-84
2023/01/19 10:50:27;;;;;;;12.18;1.95;;;;;;;;;;5093455;28;20543;-83
2023/01/19 10:52:55;;;;;;;12.13;2.42;;;;;;;;;;5091373;28;20506;-85
2023/01/19 10:55:28;;;;;;;12.88;2.30;;;;;;;;;;5071977;28;20417;-85
2023/01/19 10:57:55;;;;;;;13.98;2.10;;;;;;;;;;5119086;27;20422;-84
2023/01/19 11:00:29;;;;;;;9.98;2.20;;;;;;;;;;5090761;28;20424;-84
2023/01/19 11:02:55;;;;;;;9.93;2.10;;;;;;;;;;5089836;28;20426;-83
2023/01/19 11:05:23;;;;;;;10.57;2.10;;;;;;;;;;5092121;28;20444;-82
2023/01/19 11:07:49;;;;;;;13.40;2.25;;;;;;;;;;5076670;28;20406;-84
2023/01/19 11:10:19;;;;;;;10.85;2.50;;;;;;;;;;5090261;28;20455;-83
2023/01/19 11:13:06;;;;;;;14.47;2.40;;;;;;;;;;5104426;28;20447;-84
2023/01/19 11:15:44;;;;;;;11.77;2.20;;;;;;;;;;5107160;27;20433;-84
2023/01/19 11:18:18;;;;;;;12.63;1.83;;;;;;;;;;5082881;28;20420;-83
2023/01/19 11:20:52;;;;;;;10.43;2.20;;;;;;;;;;5090879;28;20438;-84
2023/01/19 11:23:25;;;;;;;11.80;2.10;;;;;;;;;;5093377;28;20497;-84
2023/01/19 11:25:52;;;;;;;10.67;1.80;;;;;;;;;;5094129;28;20900;-86
2023/01/19 11:28:29;;;;;;;7.13;1.80;;;;;;;;;;5087339;28;20425;-83
2023/01/19 11:31:00;;;;;;;7.28;1.52;;;;;;;;;;5073580;28;20402;-83
2023/01/19 11:33:31;;;;;;;7.55;1.60;;;;;;;;;;5092482;28;20947;-83
2023/01/19 11:36:01;;;;;;;8.93;1.60;;;;;;;;;;5093220;28;20413;-83
2023/01/19 11:38:27;;;;;;;12.32;2.50;;;;;;;;;;5075330;28;20426;-83
2023/01/19 11:40:55;;;;;;;7.88;1.38;;;;;;;;;;5084689;28;20977;-85
2023/01/19 11:43:22;;;;;;;8.70;1.83;;;;;;;;;;5089673;28;20426;-84
2023/01/19 11:45:48;;;;;;;8.35;1.52;;;;;;;;;;5127019;27;20453;-84
2023/01/19 11:48:19;;;;;;;6.55;1.63;;;;;;;;;;5083983;28;20836;-85
2023/01/19 11:50:45;;;;;;;8.38;1.45;;;;;;;;;;5093452;28;20496;-84
2023/01/19 11:53:24;;;;;;;8.95;2.05;;;;;;;;;;5103011;28;20414;-86
2023/01/19 11:55:55;;;;;;;6.13;1.60;;;;;;;;;;5092340;28;20418;-83
2023/01/19 11:58:22;;;;;;;9.32;1.80;;;;;;;;;;5090287;28;20414;-85
2023/01/19 12:01:01;;;;;;;6.25;1.67;;;;;;;;;;5081302;28;20408;-79
2023/01/19 12:03:30;;;;;;;10.80;1.73;;;;;;;;;;5078313;28;20415;-78
2023/01/19 12:06:03;;;;;;;7.30;1.40;;;;;;;;;;5087899;28;20441;-78
2023/01/19 12:08:32;;;;;;;8.30;1.50;;;;;;;;;;5068000;28;20471;-78
2023/01/19 12:10:59;;;;;;;10.45;1.73;;;;;;;;;;5078221;28;20422;-78
2023/01/19 12:13:26;;;;;;;6.28;1.73;;;;;;;;;;5071423;28;20418;-78
2023/01/19 12:16:12;;;;;;;6.05;1.40;;;;;;;;;;5095382;28;20757;-78
2023/01/19 12:18:58;;;;;;;8.93;1.60;;;;;;;;;;5083716;28;20530;-77
2023/01/19 12:21:24;;;;;;;6.32;1.73;;;;;;;;;;5091389;28;20456;-77
2023/01/19 12:23:56;;;;;;;9.27;1.80;;;;;;;;;;5093623;28;20507;-77
2023/01/19 12:26:22;;;;;;;10.15;1.60;;;;;;;;;;5079400;28;20425;-78
2023/01/19 12:28:49;;;;;;;8.73;1.60;;;;;;;;;;5078862;28;20415;-77
2023/01/19 12:31:16;;;;;;;7.15;1.40;;;;;;;;;;5070026;28;20422;-76
2023/01/19 12:33:42;;;;;;;5.32;1.58;;;;;;;;;;5081884;28;20479;-77
2023/01/19 12:36:27;;;;;;;8.63;1.45;;;;;;;;;;5082463;28;20508;-78
2023/01/19 12:39:16;;;;;;;8.83;1.70;;;;;;;;;;5079545;28;20512;-78
2023/01/19 12:41:43;;;;;;;6.90;1.23;;;;;;;;;;5078848;28;20426;-77
2023/01/19 12:44:15;;;;;;;5.40;1.20;;;;;;;;;;5073024;28;21423;-83
2023/01/19 12:46:50;;;;;;;7.45;1.50;;;;;;;;;;5092890;28;20398;-83
2023/01/19 12:49:22;;;;;;;5.88;1.40;;;;;;;;;;5092440;28;20754;-80
2023/01/19 12:51:49;;;;;;;8.70;1.40;;;;;;;;;;5063806;28;20402;-83
2023/01/19 12:54:20;;;;;;;6.45;1.20;;;;;;;;;;5089406;28;20397;-83
2023/01/19 12:56:46;;;;;;;9.30;1.52;;;;;;;;;;5090874;28;20418;-80
2023/01/19 12:59:24;;;;;;;8.15;1.70;;;;;;;;;;5085736;28;20433;-83
2023/01/19 13:02:08;;;;;;;4.93;1.27;;;;;;;;;;5072587;28;20440;-83
2023/01/19 13:04:34;;;;;;;6.22;1.42;;;;;;;;;;5096568;28;20418;-82
2023/01/19 13:07:04;;;;;;;9.57;1.45;;;;;;;;;;5092858;28;21298;-83
2023/01/19 13:09:30;;;;;;;7.95;1.77;;;;;;;;;;5074958;28;20418;-84
2023/01/19 13:12:15;;;;;;;6.85;1.60;;;;;;;;;;5092659;28;20748;-84
2023/01/19 13:14:42;;;;;;;8.77;1.60;;;;;;;;;;5078878;28;20953;-83
2023/01/19 13:17:26;;;;;;;8.32;1.50;;;;;;;;;;5090574;28;20410;-82
2023/01/19 13:19:54;;;;;;;10.87;1.90;;;;;;;;;;5083655;28;20952;-84
2023/01/19 13:22:39;;;;;;;6.00;1.50;;;;;;;;;;5078637;28;21040;-82
2023/01/19 13:25:13;;;;;;;7.68;1.45;;;;;;;;;;5082490;28;20443;-82
2023/01/19 13:27:40;;;;;;;8.38;1.25;;;;;;;;;;5075813;28;20418;-82
2023/01/19 13:30:10;;;;;;;6.65;1.33;;;;;;;;;;5086688;28;20983;-82
2023/01/19 13:32:39;;;;;;;9.93;1.58;;;;;;;;;;5089302;28;20414;-84
2023/01/19 13:35:06;;;;;;;6.90;1.55;;;;;;;;;;5090391;28;20421;-81
2023/01/19 13:37:38;;;;;;;8.73;1.60;;;;;;;;;;5070795;28;20435;-82
2023/01/19 13:40:04;;;;;;;5.15;1.20;;;;;;;;;;5094229;28;20422;-83
2023/01/19 13:42:36;;;;;;;6.70;1.52;;;;;;;;;;5068101;28;20460;-82
2023/01/19 13:45:18;;;;;;;7.63;1.42;;;;;;;;;;5099801;28;20429;-83
2023/01/19 13:47:47;;;;;;;10.53;1.47;;;;;;;;;;5081885;28;20831;-83
2023/01/19 13:50:21;;;;;;;9.60;1.50;;;;;;;;;;5086852;28;20421;-83
2023/01/19 13:52:49;;;;;;;7.65;1.60;;;;;;;;;;5079272;28;20433;-81
2023/01/19 13:55:15;;;;;;;7.55;1.40;;;;;;;;;;5088482;28;20425;-82
2023/01/19 13:57:44;;;;;;;6.82;1.60;;;;;;;;;;5074931;28;21456;-82
2023/01/19 14:00:16;;;;;;;7.57;1.80;;;;;;;;;;5078698;28;20473;-82
2023/01/19 14:02:42;;;;;;;6.00;1.50;;;;;;;;;;5089964;28;20422;-82
2023/01/19 14:05:15;;;;;;;6.72;1.73;;;;;;;;;;5081959;28;20689;-82
2023/01/19 14:07:41;;;;;;;7.40;1.50;;;;;;;;;;5091595;28;20826;-83
2023/01/19 14:10:13;;;;;;;6.32;1.38;;;;;;;;;;5119278;27;20781;-81
2023/01/19 14:12:39;;;;;;;5.50;1.23;;;;;;;;;;5098566;28;20419;-81
2023/01/19 14:15:11;;;;;;;6.75;1.27;;;;;;;;;;5090865;28;20459;-82
2023/01/19 14:17:37;;;;;;;7.60;1.50;;;;;;;;;;5100552;28;20417;-83
2023/01/19 14:20:04;;;;;;;7.13;1.13;;;;;;;;;;5119377;27;20941;-81
2023/01/19 14:22:39;;;;;;;6.72;1.40;;;;;;;;;;5093936;28;20475;-82
2023/01/19 14:25:25;;;;;;;10.45;1.42;;;;;;;;;;5089789;28;20425;-82
2023/01/19 14:27:51;;;;;;;9.02;1.40;;;;;;;;;;5075497;28;20416;-82
2023/01/19 14:30:21;;;;;;;7.63;1.40;;;;;;;;;;5119632;27;20476;-82
2023/01/19 14:32:47;;;;;;;7.47;1.45;;;;;;;;;;5107308;28;20465;-83
2023/01/19 14:35:17;;;;;;;6.95;1.50;;;;;;;;;;5085852;28;20996;-84
2023/01/19 14:37:50;;;;;;;7.85;1.23;;;;;;;;;;5088398;28;20814;-82
2023/01/19 14:40:20;;;;;;;7.60;1.45;;;;;;;;;;5076334;28;20433;-82
2023/01/19 14:42:58;;;;;;;5.18;1.10;;;;;;;;;;5115373;28;20408;-82
2023/01/19 14:45:28;;;;;;;6.80;1.20;;;;;;;;;;5072132;28;20418;-83
2023/01/19 14:47:56;;;;;;;5.20;1.33;;;;;;;;;;5089400;28;20474;-84
2023/01/19 14:50:24;;;;;;;5.53;1.40;;;;;;;;;;5088835;28;20941;-83
2023/01/19 14:52:53;;;;;;;6.35;1.50;;;;;;;;;;5086158;28;20488;-83